sensor_id;sensor_type;location;lat;lon;timestamp;pressure;altitude;pressure_sealevel;temperature;humidity
76598;BME280;65486;53.144;18.134;2023-07-13T00:00:29;100624.63;;;16.28;87.04
76598;BME280;65486;53.144;18.134;2023-07-13T00:03:18;100622.65;;;16.20;87.29
76598;BME280;65486;53.144;18.134;2023-07-13T00:05:45;100620.21;;;16.17;87.38
76598;BME280;65486;53.144;18.134;2023-07-13T00:08:14;100614.76;;;16.14;87.52
76598;BME280;65486;53.144;18.134;2023-07-13T00:10:41;100619.11;;;16.11;87.57
76598;BME280;65486;53.144;18.134;2023-07-13T00:13:09;100620.71;;;16.10;87.70
76598;BME280;65486;53.144;18.134;2023-07-13T00:15:36;100619.84;;;16.07;87.66
76598;BME280;65486;53.144;18.134;2023-07-13T00:18:05;100619.73;;;16.06;87.81
76598;BME280;65486;53.144;18.134;2023-07-13T00:20:32;100620.73;;;16.05;87.86
76598;BME280;65486;53.144;18.134;2023-07-13T00:22:59;100624.63;;;16.05;87.99
76598;BME280;65486;53.144;18.134;2023-07-13T00:25:26;100627.85;;;16.06;88.22
76598;BME280;65486;53.144;18.134;2023-07-13T00:27:57;100626.58;;;16.05;88.16
76598;BME280;65486;53.144;18.134;2023-07-13T00:30:24;100630.45;;;16.04;88.41
76598;BME280;65486;53.144;18.134;2023-07-13T00:32:52;100633.30;;;16.04;88.18
76598;BME280;65486;53.144;18.134;2023-07-13T00:35:19;100630.86;;;16.01;88.17
76598;BME280;65486;53.144;18.134;2023-07-13T00:37:46;100633.07;;;15.99;88.18
76598;BME280;65486;53.144;18.134;2023-07-13T00:40:14;100640.52;;;15.98;88.23
76598;BME280;65486;53.144;18.134;2023-07-13T00:42:41;100646.39;;;15.97;88.40
76598;BME280;65486;53.144;18.134;2023-07-13T00:47:40;100649.72;;;16.00;88.70
76598;BME280;65486;53.144;18.134;2023-07-13T00:50:10;100652.49;;;16.01;88.57
76598;BME280;65486;53.144;18.134;2023-07-13T00:52:41;100652.99;;;16.01;88.60
76598;BME280;65486;53.144;18.134;2023-07-13T00:55:10;100660.95;;;16.00;88.37
76598;BME280;65486;53.144;18.134;2023-07-13T00:57:38;100664.41;;;15.97;88.31
76598;BME280;65486;53.144;18.134;2023-07-13T01:00:08;100675.53;;;15.96;88.43
76598;BME280;65486;53.144;18.134;2023-07-13T01:02:39;100678.32;;;15.97;88.60
76598;BME280;65486;53.144;18.134;2023-07-13T01:05:11;100687.36;;;15.99;88.80
76598;BME280;65486;53.144;18.134;2023-07-13T01:07:38;100688.93;;;16.00;88.93
76598;BME280;65486;53.144;18.134;2023-07-13T01:10:07;100684.72;;;16.02;88.74
76598;BME280;65486;53.144;18.134;2023-07-13T01:12:35;100679.88;;;16.02;88.58
76598;BME280;65486;53.144;18.134;2023-07-13T01:15:03;100677.80;;;16.00;88.42
76598;BME280;65486;53.144;18.134;2023-07-13T01:17:33;100675.31;;;15.96;88.23
76598;BME280;65486;53.144;18.134;2023-07-13T01:20:00;100670.51;;;15.91;88.16
76598;BME280;65486;53.144;18.134;2023-07-13T01:22:27;100662.45;;;15.86;88.27
76598;BME280;65486;53.144;18.134;2023-07-13T01:24:54;100660.31;;;15.83;88.45
76598;BME280;65486;53.144;18.134;2023-07-13T01:27:25;100655.58;;;15.83;88.77
76598;BME280;65486;53.144;18.134;2023-07-13T01:29:53;100654.69;;;15.83;88.62
76598;BME280;65486;53.144;18.134;2023-07-13T01:32:22;100653.41;;;15.79;88.31
76598;BME280;65486;53.144;18.134;2023-07-13T01:34:51;100656.92;;;15.76;88.42
76598;BME280;65486;53.144;18.134;2023-07-13T01:37:24;100662.65;;;15.74;88.64
76598;BME280;65486;53.144;18.134;2023-07-13T01:39:52;100668.13;;;15.72;88.59
76598;BME280;65486;53.144;18.134;2023-07-13T01:42:19;100666.25;;;15.69;88.38
76598;BME280;65486;53.144;18.134;2023-07-13T01:44:48;100663.81;;;15.66;88.63
76598;BME280;65486;53.144;18.134;2023-07-13T01:47:15;100669.15;;;15.69;88.70
76598;BME280;65486;53.144;18.134;2023-07-13T01:49:43;100675.27;;;15.70;88.92
76598;BME280;65486;53.144;18.134;2023-07-13T01:52:15;100682.53;;;15.73;89.04
76598;BME280;65486;53.144;18.134;2023-07-13T01:54:42;100689.13;;;15.76;89.20
76598;BME280;65486;53.144;18.134;2023-07-13T01:57:10;100698.48;;;15.82;89.42
76598;BME280;65486;53.144;18.134;2023-07-13T01:59:36;100699.30;;;15.89;89.30
76598;BME280;65486;53.144;18.134;2023-07-13T02:02:06;100696.26;;;15.91;88.88
76598;BME280;65486;53.144;18.134;2023-07-13T02:04:34;100685.57;;;15.94;88.98
76598;BME280;65486;53.144;18.134;2023-07-13T02:07:03;100684.15;;;15.97;89.01
76598;BME280;65486;53.144;18.134;2023-07-13T02:09:31;100681.92;;;15.97;88.81
76598;BME280;65486;53.144;18.134;2023-07-13T02:11:58;100678.41;;;15.94;88.84
76598;BME280;65486;53.144;18.134;2023-07-13T02:14:31;100681.36;;;15.95;88.82
76598;BME280;65486;53.144;18.134;2023-07-13T02:16:58;100677.28;;;15.94;88.80
76598;BME280;65486;53.144;18.134;2023-07-13T02:19:27;100679.39;;;15.93;88.79
76598;BME280;65486;53.144;18.134;2023-07-13T02:21:54;100678.77;;;15.93;88.72
76598;BME280;65486;53.144;18.134;2023-07-13T02:24:21;100676.41;;;15.91;88.72
76598;BME280;65486;53.144;18.134;2023-07-13T02:26:48;100665.21;;;15.90;88.74
76598;BME280;65486;53.144;18.134;2023-07-13T02:29:15;100660.98;;;15.88;88.63
76598;BME280;65486;53.144;18.134;2023-07-13T02:31:42;100657.55;;;15.85;88.38
76598;BME280;65486;53.144;18.134;2023-07-13T02:34:11;100659.91;;;15.82;88.41
76598;BME280;65486;53.144;18.134;2023-07-13T02:36:39;100654.59;;;15.80;88.53
76598;BME280;65486;53.144;18.134;2023-07-13T02:39:06;100656.25;;;15.79;88.50
76598;BME280;65486;53.144;18.134;2023-07-13T02:41:37;100655.48;;;15.76;88.48
76598;BME280;65486;53.144;18.134;2023-07-13T02:44:04;100654.08;;;15.75;88.66
76598;BME280;65486;53.144;18.134;2023-07-13T02:46:33;100660.98;;;15.76;88.84
76598;BME280;65486;53.144;18.134;2023-07-13T02:49:01;100665.38;;;15.79;88.94
76598;BME280;65486;53.144;18.134;2023-07-13T02:51:32;100662.50;;;15.82;88.98
76598;BME280;65486;53.144;18.134;2023-07-13T02:54:02;100666.27;;;15.84;89.14
76598;BME280;65486;53.144;18.134;2023-07-13T02:56:30;100663.16;;;15.86;89.14
76598;BME280;65486;53.144;18.134;2023-07-13T02:58:58;100664.33;;;15.86;88.85
76598;BME280;65486;53.144;18.134;2023-07-13T03:01:25;100665.10;;;15.85;88.86
76598;BME280;65486;53.144;18.134;2023-07-13T03:03:52;100661.70;;;15.83;88.86
76598;BME280;65486;53.144;18.134;2023-07-13T03:06:20;100652.94;;;15.82;88.96
76598;BME280;65486;53.144;18.134;2023-07-13T03:08:51;100650.52;;;15.81;88.92
76598;BME280;65486;53.144;18.134;2023-07-13T03:11:20;100656.98;;;15.80;88.96
76598;BME280;65486;53.144;18.134;2023-07-13T03:13:53;100656.94;;;15.80;89.20
76598;BME280;65486;53.144;18.134;2023-07-13T03:16:22;100651.86;;;15.81;89.29
76598;BME280;65486;53.144;18.134;2023-07-13T03:18:52;100650.15;;;15.85;89.64
76598;BME280;65486;53.144;18.134;2023-07-13T03:21:20;100653.82;;;15.90;89.62
76598;BME280;65486;53.144;18.134;2023-07-13T03:23:47;100653.97;;;15.93;89.32
76598;BME280;65486;53.144;18.134;2023-07-13T03:26:19;100648.94;;;15.96;89.14
76598;BME280;65486;53.144;18.134;2023-07-13T03:28:46;100655.70;;;15.98;89.20
76598;BME280;65486;53.144;18.134;2023-07-13T03:31:23;100662.17;;;15.99;89.08
76598;BME280;65486;53.144;18.134;2023-07-13T03:33:51;100665.39;;;15.99;88.84
76598;BME280;65486;53.144;18.134;2023-07-13T03:36:23;100669.44;;;15.98;88.81
76598;BME280;65486;53.144;18.134;2023-07-13T03:38:53;100673.73;;;15.99;88.86
76598;BME280;65486;53.144;18.134;2023-07-13T03:41:26;100675.16;;;16.03;88.93
76598;BME280;65486;53.144;18.134;2023-07-13T03:43:54;100676.59;;;16.06;88.80
76598;BME280;65486;53.144;18.134;2023-07-13T03:46:22;100676.11;;;16.13;88.98
76598;BME280;65486;53.144;18.134;2023-07-13T03:48:49;100677.80;;;16.19;89.04
76598;BME280;65486;53.144;18.134;2023-07-13T03:51:17;100675.33;;;16.24;89.06
76598;BME280;65486;53.144;18.134;2023-07-13T03:53:47;100678.67;;;16.30;89.22
76598;BME280;65486;53.144;18.134;2023-07-13T03:56:17;100684.73;;;16.34;88.99
76598;BME280;65486;53.144;18.134;2023-07-13T03:58:47;100688.28;;;16.39;88.98
76598;BME280;65486;53.144;18.134;2023-07-13T04:01:20;100695.55;;;16.41;88.79
76598;BME280;65486;53.144;18.134;2023-07-13T04:03:49;100694.79;;;16.44;88.80
76598;BME280;65486;53.144;18.134;2023-07-13T04:06:20;100699.61;;;16.48;88.88
76598;BME280;65486;53.144;18.134;2023-07-13T04:08:53;100703.05;;;16.51;88.75
76598;BME280;65486;53.144;18.134;2023-07-13T04:11:22;100702.52;;;16.49;88.53
76598;BME280;65486;53.144;18.134;2023-07-13T04:13:51;100708.20;;;16.49;88.56
76598;BME280;65486;53.144;18.134;2023-07-13T04:16:19;100710.20;;;16.49;88.34
76598;BME280;65486;53.144;18.134;2023-07-13T04:18:47;100717.52;;;16.51;88.39
76598;BME280;65486;53.144;18.134;2023-07-13T04:21:15;100714.09;;;16.53;88.51
76598;BME280;65486;53.144;18.134;2023-07-13T04:23:43;100715.24;;;16.57;88.57
76598;BME280;65486;53.144;18.134;2023-07-13T04:26:11;100711.52;;;16.60;88.52
76598;BME280;65486;53.144;18.134;2023-07-13T04:28:41;100705.23;;;16.61;88.45
76598;BME280;65486;53.144;18.134;2023-07-13T04:31:10;100696.82;;;16.61;88.16
76598;BME280;65486;53.144;18.134;2023-07-13T04:33:37;100691.77;;;16.62;87.98
76598;BME280;65486;53.144;18.134;2023-07-13T04:36:05;100694.20;;;16.74;88.00
76598;BME280;65486;53.144;18.134;2023-07-13T04:38:32;100702.89;;;16.93;87.67
76598;BME280;65486;53.144;18.134;2023-07-13T04:41:04;100717.96;;;17.19;87.60
76598;BME280;65486;53.144;18.134;2023-07-13T04:43:32;100713.95;;;17.45;87.36
76598;BME280;65486;53.144;18.134;2023-07-13T04:46:06;100712.23;;;17.62;87.42
76598;BME280;65486;53.144;18.134;2023-07-13T04:48:33;100709.45;;;17.74;87.01
76598;BME280;65486;53.144;18.134;2023-07-13T04:51:01;100716.73;;;18.06;86.27
76598;BME280;65486;53.144;18.134;2023-07-13T04:53:30;100722.98;;;18.69;84.94
76598;BME280;65486;53.144;18.134;2023-07-13T04:55:58;100729.10;;;19.12;83.85
76598;BME280;65486;53.144;18.134;2023-07-13T04:58:25;100745.34;;;19.44;82.92
76598;BME280;65486;53.144;18.134;2023-07-13T05:00:53;100753.89;;;19.66;82.44
76598;BME280;65486;53.144;18.134;2023-07-13T05:03:21;100750.67;;;19.76;82.09
76598;BME280;65486;53.144;18.134;2023-07-13T05:06:15;100746.39;;;19.82;81.95
76598;BME280;65486;53.144;18.134;2023-07-13T05:08:43;100747.57;;;19.83;82.03
76598;BME280;65486;53.144;18.134;2023-07-13T05:11:10;100748.98;;;19.83;82.07
76598;BME280;65486;53.144;18.134;2023-07-13T05:13:37;100753.17;;;20.09;81.77
76598;BME280;65486;53.144;18.134;2023-07-13T05:16:05;100755.98;;;20.84;80.17
76598;BME280;65486;53.144;18.134;2023-07-13T05:18:34;100749.09;;;21.14;78.86
76598;BME280;65486;53.144;18.134;2023-07-13T05:21:08;100752.69;;;21.11;78.74
76598;BME280;65486;53.144;18.134;2023-07-13T05:23:37;100751.98;;;20.99;78.72
76598;BME280;65486;53.144;18.134;2023-07-13T05:26:04;100751.69;;;20.96;78.86
76598;BME280;65486;53.144;18.134;2023-07-13T05:28:31;100754.48;;;21.64;77.63
76598;BME280;65486;53.144;18.134;2023-07-13T05:30:59;100756.38;;;22.27;76.23
76598;BME280;65486;53.144;18.134;2023-07-13T05:33:27;100758.95;;;22.52;75.32
76598;BME280;65486;53.144;18.134;2023-07-13T05:35:54;100758.31;;;22.74;73.87
76598;BME280;65486;53.144;18.134;2023-07-13T05:38:24;100760.36;;;23.05;73.31
76598;BME280;65486;53.144;18.134;2023-07-13T05:40:54;100761.71;;;23.70;71.51
76598;BME280;65486;53.144;18.134;2023-07-13T05:43:22;100769.23;;;24.64;70.07
76598;BME280;65486;53.144;18.134;2023-07-13T05:45:55;100769.72;;;25.38;68.71
76598;BME280;65486;53.144;18.134;2023-07-13T05:48:24;100771.46;;;26.37;66.96
76598;BME280;65486;53.144;18.134;2023-07-13T05:50:54;100769.04;;;27.16;64.44
76598;BME280;65486;53.144;18.134;2023-07-13T05:53:23;100757.28;;;27.95;62.85
76598;BME280;65486;53.144;18.134;2023-07-13T05:55:54;100762.05;;;28.59;62.47
76598;BME280;65486;53.144;18.134;2023-07-13T05:58:23;100755.60;;;29.05;60.17
76598;BME280;65486;53.144;18.134;2023-07-13T06:01:11;100759.45;;;29.62;59.17
76598;BME280;65486;53.144;18.134;2023-07-13T06:03:39;100756.29;;;30.10;58.13
76598;BME280;65486;53.144;18.134;2023-07-13T06:06:08;100760.52;;;30.29;55.26
76598;BME280;65486;53.144;18.134;2023-07-13T06:08:35;100762.65;;;30.23;54.70
76598;BME280;65486;53.144;18.134;2023-07-13T06:11:17;100765.45;;;30.70;53.03
76598;BME280;65486;53.144;18.134;2023-07-13T06:13:46;100761.27;;;31.05;51.03
76598;BME280;65486;53.144;18.134;2023-07-13T06:16:15;100754.37;;;31.52;47.72
76598;BME280;65486;53.144;18.134;2023-07-13T06:18:43;100752.84;;;31.94;47.89
76598;BME280;65486;53.144;18.134;2023-07-13T06:21:16;100750.74;;;32.15;46.71
76598;BME280;65486;53.144;18.134;2023-07-13T06:23:44;100740.27;;;32.47;45.93
76598;BME280;65486;53.144;18.134;2023-07-13T06:26:11;100743.04;;;32.74;46.23
76598;BME280;65486;53.144;18.134;2023-07-13T06:28:40;100746.20;;;33.06;44.08
76598;BME280;65486;53.144;18.134;2023-07-13T06:31:19;100748.72;;;33.30;40.41
76598;BME280;65486;53.144;18.134;2023-07-13T06:33:47;100747.66;;;33.60;40.51
76598;BME280;65486;53.144;18.134;2023-07-13T06:36:16;100744.90;;;33.94;40.37
76598;BME280;65486;53.144;18.134;2023-07-13T06:38:43;100749.17;;;34.41;39.71
76598;BME280;65486;53.144;18.134;2023-07-13T06:41:11;100749.60;;;34.90;38.23
76598;BME280;65486;53.144;18.134;2023-07-13T06:43:38;100748.70;;;35.37;36.15
76598;BME280;65486;53.144;18.134;2023-07-13T06:46:06;100751.27;;;35.75;35.36
76598;BME280;65486;53.144;18.134;2023-07-13T06:48:33;100754.06;;;35.62;35.44
76598;BME280;65486;53.144;18.134;2023-07-13T06:51:02;100745.78;;;34.71;35.54
76598;BME280;65486;53.144;18.134;2023-07-13T06:53:30;100753.91;;;33.66;36.41
76598;BME280;65486;53.144;18.134;2023-07-13T06:55:57;100760.95;;;32.76;37.50
76598;BME280;65486;53.144;18.134;2023-07-13T06:58:24;100772.30;;;32.00;38.45
76598;BME280;65486;53.144;18.134;2023-07-13T07:00:52;100776.76;;;31.28;39.33
76598;BME280;65486;53.144;18.134;2023-07-13T07:03:19;100782.78;;;30.56;40.67
76598;BME280;65486;53.144;18.134;2023-07-13T07:05:46;100780.35;;;30.05;40.88
76598;BME280;65486;53.144;18.134;2023-07-13T07:08:13;100777.98;;;29.58;41.54
76598;BME280;65486;53.144;18.134;2023-07-13T07:10:41;100777.03;;;29.03;41.88
76598;BME280;65486;53.144;18.134;2023-07-13T07:13:10;100777.39;;;28.49;42.93
76598;BME280;65486;53.144;18.134;2023-07-13T07:15:38;100781.11;;;28.10;44.70
76598;BME280;65486;53.144;18.134;2023-07-13T07:18:05;100787.61;;;27.77;44.89
76598;BME280;65486;53.144;18.134;2023-07-13T07:20:33;100790.31;;;27.39;45.03
76598;BME280;65486;53.144;18.134;2023-07-13T07:23:00;100799.27;;;27.07;45.47
76598;BME280;65486;53.144;18.134;2023-07-13T07:25:27;100797.95;;;26.95;45.82
76598;BME280;65486;53.144;18.134;2023-07-13T07:27:58;100795.35;;;26.89;46.33
76598;BME280;65486;53.144;18.134;2023-07-13T07:30:26;100785.63;;;27.61;45.56
76598;BME280;65486;53.144;18.134;2023-07-13T07:32:53;100783.03;;;28.78;44.02
76598;BME280;65486;53.144;18.134;2023-07-13T07:35:21;100780.05;;;30.12;42.51
76598;BME280;65486;53.144;18.134;2023-07-13T07:37:49;100783.83;;;31.40;40.64
76598;BME280;65486;53.144;18.134;2023-07-13T07:40:17;100781.59;;;31.70;40.15
76598;BME280;65486;53.144;18.134;2023-07-13T07:42:44;100773.16;;;31.86;39.64
76598;BME280;65486;53.144;18.134;2023-07-13T07:45:14;100776.01;;;32.41;38.45
76598;BME280;65486;53.144;18.134;2023-07-13T07:47:40;100773.45;;;32.44;38.44
76598;BME280;65486;53.144;18.134;2023-07-13T07:50:10;100770.17;;;32.97;37.78
76598;BME280;65486;53.144;18.134;2023-07-13T07:52:37;100771.07;;;33.57;36.34
76598;BME280;65486;53.144;18.134;2023-07-13T07:55:06;100775.25;;;33.43;36.30
76598;BME280;65486;53.144;18.134;2023-07-13T07:57:33;100781.35;;;33.49;36.78
76598;BME280;65486;53.144;18.134;2023-07-13T08:00:00;100789.20;;;34.15;36.08
76598;BME280;65486;53.144;18.134;2023-07-13T08:02:32;100782.30;;;34.82;34.33
76598;BME280;65486;53.144;18.134;2023-07-13T08:04:59;100786.20;;;35.12;33.32
76598;BME280;65486;53.144;18.134;2023-07-13T08:07:26;100785.52;;;35.00;33.06
76598;BME280;65486;53.144;18.134;2023-07-13T08:09:53;100792.27;;;34.85;32.95
76598;BME280;65486;53.144;18.134;2023-07-13T08:12:20;100791.34;;;34.73;32.67
76598;BME280;65486;53.144;18.134;2023-07-13T08:14:52;100785.41;;;34.92;32.87
76598;BME280;65486;53.144;18.134;2023-07-13T08:17:25;100788.44;;;35.20;31.91
76598;BME280;65486;53.144;18.134;2023-07-13T08:19:52;100788.29;;;35.39;31.57
76598;BME280;65486;53.144;18.134;2023-07-13T08:22:25;100783.16;;;35.68;31.41
76598;BME280;65486;53.144;18.134;2023-07-13T08:24:56;100784.93;;;36.02;31.31
76598;BME280;65486;53.144;18.134;2023-07-13T08:27:24;100781.71;;;36.43;30.77
76598;BME280;65486;53.144;18.134;2023-07-13T08:29:53;100777.37;;;36.54;29.42
76598;BME280;65486;53.144;18.134;2023-07-13T08:32:21;100772.45;;;36.64;29.63
76598;BME280;65486;53.144;18.134;2023-07-13T08:34:49;100773.77;;;36.88;29.62
76598;BME280;65486;53.144;18.134;2023-07-13T08:37:17;100767.52;;;37.28;28.97
76598;BME280;65486;53.144;18.134;2023-07-13T08:39:44;100765.83;;;37.56;28.09
76598;BME280;65486;53.144;18.134;2023-07-13T08:45:22;100751.71;;;38.03;26.32
76598;BME280;65486;53.144;18.134;2023-07-13T08:48:02;100755.67;;;38.16;25.71
76598;BME280;65486;53.144;18.134;2023-07-13T08:50:45;100755.93;;;38.27;25.64
76598;BME280;65486;53.144;18.134;2023-07-13T08:53:18;100743.35;;;38.46;25.58
76598;BME280;65486;53.144;18.134;2023-07-13T08:55:45;100744.06;;;38.65;25.14
76598;BME280;65486;53.144;18.134;2023-07-13T08:58:15;100745.84;;;38.90;24.84
76598;BME280;65486;53.144;18.134;2023-07-13T09:03:19;100751.17;;;38.31;25.62
76598;BME280;65486;53.144;18.134;2023-07-13T09:05:52;100755.65;;;37.99;25.46
76598;BME280;65486;53.144;18.134;2023-07-13T09:08:46;100760.10;;;36.89;24.99
76598;BME280;65486;53.144;18.134;2023-07-13T09:17:03;100780.67;;;32.72;30.96
76598;BME280;65486;53.144;18.134;2023-07-13T09:19:32;100785.04;;;31.69;32.49
76598;BME280;65486;53.144;18.134;2023-07-13T09:22:04;100781.61;;;30.82;33.60
76598;BME280;65486;53.144;18.134;2023-07-13T09:24:41;100777.57;;;30.10;34.00
76598;BME280;65486;53.144;18.134;2023-07-13T09:27:21;100775.64;;;29.52;34.76
76598;BME280;65486;53.144;18.134;2023-07-13T09:32:47;100778.95;;;30.58;33.91
76598;BME280;65486;53.144;18.134;2023-07-13T09:35:27;100782.48;;;30.91;33.34
76598;BME280;65486;53.144;18.134;2023-07-13T09:38:03;100779.07;;;30.39;33.77
76598;BME280;65486;53.144;18.134;2023-07-13T09:43:26;100780.90;;;29.32;34.80
76598;BME280;65486;53.144;18.134;2023-07-13T09:45:56;100778.13;;;28.92;35.58
76598;BME280;65486;53.144;18.134;2023-07-13T09:48:23;100776.05;;;28.60;36.24
76598;BME280;65486;53.144;18.134;2023-07-13T09:50:54;100775.14;;;28.31;36.53
76598;BME280;65486;53.144;18.134;2023-07-13T09:53:25;100774.98;;;28.27;36.26
76598;BME280;65486;53.144;18.134;2023-07-13T09:55:57;100769.59;;;29.00;35.53
76598;BME280;65486;53.144;18.134;2023-07-13T09:58:30;100767.59;;;28.93;36.18
76598;BME280;65486;53.144;18.134;2023-07-13T10:01:02;100760.71;;;29.97;35.22
76598;BME280;65486;53.144;18.134;2023-07-13T10:03:34;100761.10;;;30.37;34.70
76598;BME280;65486;53.144;18.134;2023-07-13T10:06:16;100757.39;;;31.06;33.82
76598;BME280;65486;53.144;18.134;2023-07-13T10:08:50;100752.53;;;31.74;33.33
76598;BME280;65486;53.144;18.134;2023-07-13T10:11:19;100754.77;;;31.75;32.11
76598;BME280;65486;53.144;18.134;2023-07-13T10:13:57;100751.98;;;31.44;32.46
76598;BME280;65486;53.144;18.134;2023-07-13T10:16:28;100752.19;;;31.07;32.01
76598;BME280;65486;53.144;18.134;2023-07-13T10:19:05;100751.59;;;30.57;30.74
76598;BME280;65486;53.144;18.134;2023-07-13T10:21:50;100759.40;;;29.99;31.43
76598;BME280;65486;53.144;18.134;2023-07-13T10:24:29;100762.96;;;29.52;32.42
76598;BME280;65486;53.144;18.134;2023-07-13T10:27:18;100763.64;;;29.12;35.18
76598;BME280;65486;53.144;18.134;2023-07-13T10:29:59;100761.09;;;28.44;37.44
76598;BME280;65486;53.144;18.134;2023-07-13T10:32:28;100753.59;;;27.85;38.38
76598;BME280;65486;53.144;18.134;2023-07-13T10:34:55;100758.92;;;27.41;39.74
76598;BME280;65486;53.144;18.134;2023-07-13T10:37:30;100770.31;;;27.07;40.44
76598;BME280;65486;53.144;18.134;2023-07-13T10:40:00;100770.37;;;26.77;41.72
76598;BME280;65486;53.144;18.134;2023-07-13T10:42:35;100770.83;;;26.51;42.18
76598;BME280;65486;53.144;18.134;2023-07-13T10:45:20;100770.73;;;26.41;42.69
76598;BME280;65486;53.144;18.134;2023-07-13T10:47:48;100770.81;;;26.33;43.27
76598;BME280;65486;53.144;18.134;2023-07-13T10:50:20;100761.78;;;26.28;43.64
76598;BME280;65486;53.144;18.134;2023-07-13T10:52:50;100765.35;;;26.32;43.82
76598;BME280;65486;53.144;18.134;2023-07-13T10:58:23;100766.34;;;26.55;43.45
76598;BME280;65486;53.144;18.134;2023-07-13T11:03:46;100765.47;;;26.76;43.76
76598;BME280;65486;53.144;18.134;2023-07-13T11:06:29;100763.39;;;26.83;43.82
76598;BME280;65486;53.144;18.134;2023-07-13T11:17:50;100757.48;;;27.68;43.23
76598;BME280;65486;53.144;18.134;2023-07-13T11:20:37;100760.96;;;27.92;43.27
76598;BME280;65486;53.144;18.134;2023-07-13T11:23:18;100755.94;;;28.85;40.71
76598;BME280;65486;53.144;18.134;2023-07-13T11:25:47;100762.93;;;29.53;40.17
76598;BME280;65486;53.144;18.134;2023-07-13T11:28:18;100760.19;;;29.69;39.75
76598;BME280;65486;53.144;18.134;2023-07-13T11:33:50;100761.01;;;29.19;40.90
76598;BME280;65486;53.144;18.134;2023-07-13T11:36:20;100764.33;;;28.39;41.52
76598;BME280;65486;53.144;18.134;2023-07-13T11:41:25;100774.77;;;27.12;43.84
76598;BME280;65486;53.144;18.134;2023-07-13T11:46:34;100768.48;;;26.88;45.02
76598;BME280;65486;53.144;18.134;2023-07-13T11:49:07;100769.85;;;26.84;44.86
76598;BME280;65486;53.144;18.134;2023-07-13T11:51:36;100772.31;;;26.65;45.16
76598;BME280;65486;53.144;18.134;2023-07-13T11:54:12;100780.12;;;26.43;45.81
76598;BME280;65486;53.144;18.134;2023-07-13T11:56:44;100779.16;;;26.25;46.14
76598;BME280;65486;53.144;18.134;2023-07-13T11:59:14;100779.27;;;26.15;46.50
76598;BME280;65486;53.144;18.134;2023-07-13T12:01:47;100776.75;;;26.10;47.27
76598;BME280;65486;53.144;18.134;2023-07-13T12:04:26;100774.71;;;25.93;46.94
76598;BME280;65486;53.144;18.134;2023-07-13T12:06:56;100780.61;;;25.74;47.56
76598;BME280;65486;53.144;18.134;2023-07-13T12:09:28;100776.70;;;25.70;47.83
76598;BME280;65486;53.144;18.134;2023-07-13T12:11:59;100772.34;;;25.91;47.62
76598;BME280;65486;53.144;18.134;2023-07-13T12:14:29;100765.59;;;26.41;46.84
76598;BME280;65486;53.144;18.134;2023-07-13T12:16:56;100766.30;;;26.54;46.75
76598;BME280;65486;53.144;18.134;2023-07-13T12:19:25;100760.50;;;26.70;46.10
76598;BME280;65486;53.144;18.134;2023-07-13T12:22:03;100762.65;;;27.04;45.33
76598;BME280;65486;53.144;18.134;2023-07-13T12:24:40;100760.70;;;27.11;45.24
76598;BME280;65486;53.144;18.134;2023-07-13T12:27:23;100761.27;;;27.16;44.69
76598;BME280;65486;53.144;18.134;2023-07-13T12:30:01;100757.12;;;27.08;44.23
76598;BME280;65486;53.144;18.134;2023-07-13T12:32:30;100757.26;;;27.08;44.57
76598;BME280;65486;53.144;18.134;2023-07-13T12:35:16;100752.36;;;27.05;44.67
76598;BME280;65486;53.144;18.134;2023-07-13T12:37:48;100750.44;;;27.02;44.76
76598;BME280;65486;53.144;18.134;2023-07-13T12:40:20;100749.30;;;27.06;44.70
76598;BME280;65486;53.144;18.134;2023-07-13T12:42:50;100743.34;;;26.99;42.96
76598;BME280;65486;53.144;18.134;2023-07-13T12:45:32;100743.70;;;26.98;41.76
76598;BME280;65486;53.144;18.134;2023-07-13T12:48:13;100741.33;;;27.15;42.37
76598;BME280;65486;53.144;18.134;2023-07-13T12:50:43;100736.52;;;27.38;42.17
76598;BME280;65486;53.144;18.134;2023-07-13T12:53:15;100732.41;;;27.56;41.87
76598;BME280;65486;53.144;18.134;2023-07-13T12:55:53;100736.31;;;27.58;42.13
76598;BME280;65486;53.144;18.134;2023-07-13T12:58:40;100736.46;;;27.71;41.75
76598;BME280;65486;53.144;18.134;2023-07-13T13:01:13;100729.05;;;27.60;40.52
76598;BME280;65486;53.144;18.134;2023-07-13T13:03:51;100732.79;;;27.45;40.55
76598;BME280;65486;53.144;18.134;2023-07-13T13:06:26;100739.83;;;27.32;40.59
76598;BME280;65486;53.144;18.134;2023-07-13T13:08:55;100747.71;;;27.26;40.34
76598;BME280;65486;53.144;18.134;2023-07-13T13:11:31;100752.15;;;27.22;40.37
76598;BME280;65486;53.144;18.134;2023-07-13T13:13:59;100751.02;;;27.17;39.13
76598;BME280;65486;53.144;18.134;2023-07-13T13:18:54;100754.38;;;27.20;39.26
76598;BME280;65486;53.144;18.134;2023-07-13T13:21:24;100752.21;;;27.22;38.93
76598;BME280;65486;53.144;18.134;2023-07-13T13:23:54;100756.84;;;27.13;40.05
76598;BME280;65486;53.144;18.134;2023-07-13T13:26:23;100749.05;;;27.09;41.72
76598;BME280;65486;53.144;18.134;2023-07-13T13:28:50;100751.69;;;26.95;42.74
76598;BME280;65486;53.144;18.134;2023-07-13T13:31:17;100755.72;;;26.81;43.29
76598;BME280;65486;53.144;18.134;2023-07-13T13:33:44;100748.68;;;26.63;44.06
76598;BME280;65486;53.144;18.134;2023-07-13T13:36:17;100757.91;;;26.48;44.51
76598;BME280;65486;53.144;18.134;2023-07-13T13:38:46;100758.66;;;26.31;45.16
76598;BME280;65486;53.144;18.134;2023-07-13T13:41:14;100757.50;;;26.17;45.86